sensor_id;sensor_type;location;lat;lon;timestamp;pressure;altitude;pressure_sealevel;temperature;humidity
30302;BME280;17111;52.130;5.028;2023-04-24T00:00:59;99932.66;;;18.79;52.05
30302;BME280;17111;52.130;5.028;2023-04-24T00:03:27;99931.00;;;18.78;52.17
30302;BME280;17111;52.130;5.028;2023-04-24T00:05:54;99939.22;;;18.77;52.21
30302;BME280;17111;52.130;5.028;2023-04-24T00:08:21;99941.06;;;18.76;52.07
30302;BME280;17111;52.130;5.028;2023-04-24T00:10:49;99937.53;;;18.76;52.40
30302;BME280;17111;52.130;5.028;2023-04-24T00:13:15;99935.88;;;18.74;52.52
30302;BME280;17111;52.130;5.028;2023-04-24T00:15:42;99944.78;;;18.75;52.32
30302;BME280;17111;52.130;5.028;2023-04-24T00:18:09;99945.94;;;18.72;52.42
30302;BME280;17111;52.130;5.028;2023-04-24T00:20:35;99946.97;;;18.71;52.13
30302;BME280;17111;52.130;5.028;2023-04-24T00:23:02;99947.16;;;18.70;52.10
30302;BME280;17111;52.130;5.028;2023-04-24T00:25:28;99958.03;;;18.68;52.16
30302;BME280;17111;52.130;5.028;2023-04-24T00:27:55;99959.72;;;18.69;52.31
30302;BME280;17111;52.130;5.028;2023-04-24T00:30:22;99967.09;;;18.67;52.48
30302;BME280;17111;52.130;5.028;2023-04-24T00:32:48;99971.66;;;18.67;52.04
30302;BME280;17111;52.130;5.028;2023-04-24T00:35:15;99963.78;;;18.65;52.16
30302;BME280;17111;52.130;5.028;2023-04-24T00:37:42;99961.09;;;18.65;52.48
30302;BME280;17111;52.130;5.028;2023-04-24T00:40:09;99971.84;;;18.65;52.18
30302;BME280;17111;52.130;5.028;2023-04-24T00:42:36;99970.13;;;18.64;52.29
30302;BME280;17111;52.130;5.028;2023-04-24T00:45:03;99966.81;;;18.62;52.51
30302;BME280;17111;52.130;5.028;2023-04-24T00:47:30;99964.13;;;18.62;52.70
30302;BME280;17111;52.130;5.028;2023-04-24T00:49:57;99976.72;;;18.62;52.73
30302;BME280;17111;52.130;5.028;2023-04-24T00:52:24;99975.84;;;18.61;52.31
30302;BME280;17111;52.130;5.028;2023-04-24T00:54:51;99968.00;;;18.60;52.17
30302;BME280;17111;52.130;5.028;2023-04-24T00:57:18;99968.00;;;18.60;52.27
30302;BME280;17111;52.130;5.028;2023-04-24T00:59:45;99973.56;;;18.58;52.34
30302;BME280;17111;52.130;5.028;2023-04-24T01:02:12;99978.72;;;18.60;52.78
30302;BME280;17111;52.130;5.028;2023-04-24T01:04:39;99970.88;;;18.58;52.39
30302;BME280;17111;52.130;5.028;2023-04-24T01:07:06;99981.59;;;18.58;52.25
30302;BME280;17111;52.130;5.028;2023-04-24T01:09:39;99983.47;;;18.58;52.62
30302;BME280;17111;52.130;5.028;2023-04-24T01:12:09;99984.44;;;18.57;52.29
30302;BME280;17111;52.130;5.028;2023-04-24T01:14:36;99980.94;;;18.56;52.41
30302;BME280;17111;52.130;5.028;2023-04-24T01:17:02;99976.41;;;18.57;52.03
30302;BME280;17111;52.130;5.028;2023-04-24T01:19:29;99978.25;;;18.56;52.47
30302;BME280;17111;52.130;5.028;2023-04-24T01:21:58;99979.28;;;18.55;51.96
30302;BME280;17111;52.130;5.028;2023-04-24T01:24:25;99984.63;;;18.55;52.37
30302;BME280;17111;52.130;5.028;2023-04-24T01:26:52;99993.72;;;18.54;52.26
30302;BME280;17111;52.130;5.028;2023-04-24T01:29:19;99988.34;;;18.54;52.46
30302;BME280;17111;52.130;5.028;2023-04-24T01:31:45;99989.34;;;18.53;52.38
30302;BME280;17111;52.130;5.028;2023-04-24T01:34:12;99989.53;;;18.52;52.21
30302;BME280;17111;52.130;5.028;2023-04-24T01:36:41;99990.34;;;18.52;52.29
30302;BME280;17111;52.130;5.028;2023-04-24T01:39:08;99994.88;;;18.52;52.35
30302;BME280;17111;52.130;5.028;2023-04-24T01:41:34;99986.00;;;18.51;52.70
30302;BME280;17111;52.130;5.028;2023-04-24T01:44:01;99995.09;;;18.50;52.56
30302;BME280;17111;52.130;5.028;2023-04-24T01:46:28;99995.09;;;18.50;52.39
30302;BME280;17111;52.130;5.028;2023-04-24T01:48:55;99992.41;;;18.50;52.47
30302;BME280;17111;52.130;5.028;2023-04-24T01:51:22;99995.91;;;18.50;52.27
30302;BME280;17111;52.130;5.028;2023-04-24T01:53:49;99988.03;;;18.49;52.01
30302;BME280;17111;52.130;5.028;2023-04-24T01:56:16;99995.09;;;18.50;52.11
30302;BME280;17111;52.130;5.028;2023-04-24T01:58:43;99993.38;;;18.49;52.26
30302;BME280;17111;52.130;5.028;2023-04-24T02:01:15;99993.38;;;18.49;52.13
30302;BME280;17111;52.130;5.028;2023-04-24T02:03:44;99986.34;;;18.48;52.09
30302;BME280;17111;52.130;5.028;2023-04-24T02:06:11;99989.03;;;18.48;51.74
30302;BME280;17111;52.130;5.028;2023-04-24T02:08:37;99993.56;;;18.47;52.02
30302;BME280;17111;52.130;5.028;2023-04-24T02:11:04;99993.75;;;18.46;52.08
30302;BME280;17111;52.130;5.028;2023-04-24T02:13:31;99995.63;;;18.45;52.14
30302;BME280;17111;52.130;5.028;2023-04-24T02:16:00;99987.72;;;18.44;52.48
30302;BME280;17111;52.130;5.028;2023-04-24T02:18:27;99992.06;;;18.45;52.41
30302;BME280;17111;52.130;5.028;2023-04-24T02:20:53;99993.09;;;18.44;52.59
30302;BME280;17111;52.130;5.028;2023-04-24T02:23:20;99994.94;;;18.43;52.40
30302;BME280;17111;52.130;5.028;2023-04-24T02:25:47;99994.13;;;18.43;52.57
30302;BME280;17111;52.130;5.028;2023-04-24T02:28:13;99989.75;;;18.42;52.43
30302;BME280;17111;52.130;5.028;2023-04-24T02:30:40;100000.50;;;18.42;52.56
30302;BME280;17111;52.130;5.028;2023-04-24T02:33:06;99996.97;;;18.41;52.42
30302;BME280;17111;52.130;5.028;2023-04-24T02:35:33;99991.78;;;18.40;52.47
30302;BME280;17111;52.130;5.028;2023-04-24T02:38:00;99999.81;;;18.40;52.46
30302;BME280;17111;52.130;5.028;2023-04-24T02:40:26;99997.97;;;18.40;52.66
30302;BME280;17111;52.130;5.028;2023-04-24T02:42:53;99998.16;;;18.39;52.41
30302;BME280;17111;52.130;5.028;2023-04-24T02:45:19;100000.84;;;18.39;52.42
30302;BME280;17111;52.130;5.028;2023-04-24T02:47:46;99995.47;;;18.39;52.11
30302;BME280;17111;52.130;5.028;2023-04-24T02:50:12;99996.50;;;18.38;52.53
30302;BME280;17111;52.130;5.028;2023-04-24T02:52:39;99989.28;;;18.38;52.52
30302;BME280;17111;52.130;5.028;2023-04-24T02:55:06;99992.97;;;18.37;52.39
30302;BME280;17111;52.130;5.028;2023-04-24T02:57:34;99991.28;;;18.36;52.07
30302;BME280;17111;52.130;5.028;2023-04-24T03:00:00;99998.50;;;18.36;52.36
30302;BME280;17111;52.130;5.028;2023-04-24T03:02:27;99995.81;;;18.36;52.17
30302;BME280;17111;52.130;5.028;2023-04-24T03:04:54;99990.66;;;18.34;51.86
30302;BME280;17111;52.130;5.028;2023-04-24T03:07:21;99995.19;;;18.34;52.40
30302;BME280;17111;52.130;5.028;2023-04-24T03:09:47;99988.13;;;18.33;52.34
30302;BME280;17111;52.130;5.028;2023-04-24T03:12:14;99988.13;;;18.33;52.17
30302;BME280;17111;52.130;5.028;2023-04-24T03:14:40;99989.97;;;18.32;52.34
30302;BME280;17111;52.130;5.028;2023-04-24T03:17:07;99988.13;;;18.33;52.09
30302;BME280;17111;52.130;5.028;2023-04-24T03:19:33;99984.59;;;18.32;51.98
30302;BME280;17111;52.130;5.028;2023-04-24T03:22:02;99989.13;;;18.32;52.60
30302;BME280;17111;52.130;5.028;2023-04-24T03:24:29;99989.97;;;18.32;52.32
30302;BME280;17111;52.130;5.028;2023-04-24T03:26:57;99992.66;;;18.32;52.44
30302;BME280;17111;52.130;5.028;2023-04-24T03:29:23;99991.00;;;18.31;52.22
30302;BME280;17111;52.130;5.028;2023-04-24T03:31:50;99990.16;;;18.31;52.56
30302;BME280;17111;52.130;5.028;2023-04-24T03:34:16;99981.28;;;18.30;52.31
30302;BME280;17111;52.130;5.028;2023-04-24T03:36:43;99978.75;;;18.29;52.03
30302;BME280;17111;52.130;5.028;2023-04-24T03:39:09;99985.81;;;18.30;52.32
30302;BME280;17111;52.130;5.028;2023-04-24T03:41:36;99983.97;;;18.30;52.08
30302;BME280;17111;52.130;5.028;2023-04-24T03:44:03;99982.31;;;18.29;52.32
30302;BME280;17111;52.130;5.028;2023-04-24T03:46:29;99981.44;;;18.29;52.01
30302;BME280;17111;52.130;5.028;2023-04-24T03:48:56;99973.38;;;18.29;51.85
30302;BME280;17111;52.130;5.028;2023-04-24T03:51:22;99975.09;;;18.30;52.35
30302;BME280;17111;52.130;5.028;2023-04-24T03:53:49;99978.75;;;18.29;52.08
30302;BME280;17111;52.130;5.028;2023-04-24T03:56:16;99979.78;;;18.28;52.15
30302;BME280;17111;52.130;5.028;2023-04-24T03:58:43;99983.28;;;18.28;52.35
30302;BME280;17111;52.130;5.028;2023-04-24T04:01:09;99977.91;;;18.28;52.04
30302;BME280;17111;52.130;5.028;2023-04-24T04:03:37;99977.91;;;18.28;52.16
30302;BME280;17111;52.130;5.028;2023-04-24T04:06:05;99980.59;;;18.28;51.93
30302;BME280;17111;52.130;5.028;2023-04-24T04:08:31;99991.34;;;18.28;52.50
30302;BME280;17111;52.130;5.028;2023-04-24T04:10:58;99982.47;;;18.28;51.77
30302;BME280;17111;52.130;5.028;2023-04-24T04:13:24;99988.66;;;18.28;51.98
30302;BME280;17111;52.130;5.028;2023-04-24T04:15:51;99995.88;;;18.28;51.59
30302;BME280;17111;52.130;5.028;2023-04-24T04:18:17;99984.50;;;18.25;52.14
30302;BME280;17111;52.130;5.028;2023-04-24T04:20:44;99993.38;;;18.26;51.53
30302;BME280;17111;52.130;5.028;2023-04-24T04:23:10;100014.84;;;18.26;51.83
30302;BME280;17111;52.130;5.028;2023-04-24T04:25:37;100016.69;;;18.25;51.97
30302;BME280;17111;52.130;5.028;2023-04-24T04:28:03;100017.50;;;18.26;52.08
30302;BME280;17111;52.130;5.028;2023-04-24T04:30:30;100020.19;;;18.26;51.66
30302;BME280;17111;52.130;5.028;2023-04-24T04:32:59;100024.72;;;18.25;51.92
30302;BME280;17111;52.130;5.028;2023-04-24T04:35:25;100020.34;;;18.24;52.07
30302;BME280;17111;52.130;5.028;2023-04-24T04:37:52;100031.28;;;18.23;51.58
30302;BME280;17111;52.130;5.028;2023-04-24T04:40:19;100042.84;;;18.23;51.38
30302;BME280;17111;52.130;5.028;2023-04-24T04:42:45;100053.56;;;18.23;51.79
30302;BME280;17111;52.130;5.028;2023-04-24T04:45:12;100050.22;;;18.21;52.01
30302;BME280;17111;52.130;5.028;2023-04-24T04:47:38;100054.72;;;18.21;52.00
30302;BME280;17111;52.130;5.028;2023-04-24T04:50:06;100053.91;;;18.20;52.04
30302;BME280;17111;52.130;5.028;2023-04-24T04:52:32;100054.91;;;18.19;51.89
30302;BME280;17111;52.130;5.028;2023-04-24T04:54:59;100058.63;;;18.18;52.04
30302;BME280;17111;52.130;5.028;2023-04-24T04:57:26;100063.97;;;18.18;51.96
30302;BME280;17111;52.130;5.028;2023-04-24T04:59:53;100073.03;;;18.17;52.29
30302;BME280;17111;52.130;5.028;2023-04-24T05:02:19;100080.22;;;18.17;51.80
30302;BME280;17111;52.130;5.028;2023-04-24T05:04:47;100083.94;;;18.16;52.13
30302;BME280;17111;52.130;5.028;2023-04-24T05:07:14;100085.78;;;18.15;52.12
30302;BME280;17111;52.130;5.028;2023-04-24T05:09:40;100094.84;;;18.14;51.63
30302;BME280;17111;52.130;5.028;2023-04-24T05:12:07;100090.50;;;18.13;51.81
30302;BME280;17111;52.130;5.028;2023-04-24T05:14:34;100100.34;;;18.13;52.43
30302;BME280;17111;52.130;5.028;2023-04-24T05:17:00;100095.19;;;18.11;52.09
30302;BME280;17111;52.130;5.028;2023-04-24T05:19:27;100107.75;;;18.11;52.09
30302;BME280;17111;52.130;5.028;2023-04-24T05:21:54;100109.59;;;18.10;52.30
30302;BME280;17111;52.130;5.028;2023-04-24T05:24:20;100118.66;;;18.09;52.27
30302;BME280;17111;52.130;5.028;2023-04-24T05:26:47;100127.53;;;18.10;52.37
30302;BME280;17111;52.130;5.028;2023-04-24T05:29:14;100126.53;;;18.11;52.29
30302;BME280;17111;52.130;5.028;2023-04-24T05:31:40;100130.22;;;18.10;51.99
30302;BME280;17111;52.130;5.028;2023-04-24T05:34:07;100132.91;;;18.10;52.15
30302;BME280;17111;52.130;5.028;2023-04-24T05:36:34;100137.44;;;18.09;51.70
30302;BME280;17111;52.130;5.028;2023-04-24T05:39:00;100148.16;;;18.09;52.04
30302;BME280;17111;52.130;5.028;2023-04-24T05:41:27;100154.50;;;18.08;52.50
30302;BME280;17111;52.130;5.028;2023-04-24T05:43:53;100154.50;;;18.08;51.99
30302;BME280;17111;52.130;5.028;2023-04-24T05:46:20;100164.41;;;18.08;51.86
30302;BME280;17111;52.130;5.028;2023-04-24T05:48:46;100166.25;;;18.07;51.94
30302;BME280;17111;52.130;5.028;2023-04-24T05:51:13;100173.47;;;18.07;51.89
30302;BME280;17111;52.130;5.028;2023-04-24T05:53:39;100175.13;;;18.08;51.96
30302;BME280;17111;52.130;5.028;2023-04-24T05:56:06;100185.88;;;18.08;52.26
30302;BME280;17111;52.130;5.028;2023-04-24T05:58:33;100194.09;;;18.06;52.19
30302;BME280;17111;52.130;5.028;2023-04-24T06:00:59;100193.41;;;18.04;52.37
30302;BME280;17111;52.130;5.028;2023-04-24T06:03:27;100204.97;;;18.05;52.11
30302;BME280;17111;52.130;5.028;2023-04-24T06:05:54;100219.25;;;18.05;51.81
30302;BME280;17111;52.130;5.028;2023-04-24T06:08:21;100226.59;;;18.03;52.06
30302;BME280;17111;52.130;5.028;2023-04-24T06:10:47;100233.81;;;18.03;52.46
30302;BME280;17111;52.130;5.028;2023-04-24T06:13:14;100238.34;;;18.02;52.41
30302;BME280;17111;52.130;5.028;2023-04-24T06:15:40;100251.75;;;18.02;52.49
30302;BME280;17111;52.130;5.028;2023-04-24T06:18:07;100262.63;;;18.00;52.26
30302;BME280;17111;52.130;5.028;2023-04-24T06:20:36;100259.09;;;18.00;52.25
30302;BME280;17111;52.130;5.028;2023-04-24T06:23:03;100267.16;;;18.00;52.47
30302;BME280;17111;52.130;5.028;2023-04-24T06:25:29;100278.88;;;17.99;52.71
30302;BME280;17111;52.130;5.028;2023-04-24T06:27:56;100279.91;;;17.98;52.38
30302;BME280;17111;52.130;5.028;2023-04-24T06:30:23;100293.31;;;17.98;52.46
30302;BME280;17111;52.130;5.028;2023-04-24T06:32:50;100297.84;;;17.97;52.70
30302;BME280;17111;52.130;5.028;2023-04-24T06:35:17;100306.03;;;17.96;52.47
30302;BME280;17111;52.130;5.028;2023-04-24T06:37:43;100305.19;;;17.95;52.78
30302;BME280;17111;52.130;5.028;2023-04-24T06:40:10;100318.78;;;17.94;52.42
30302;BME280;17111;52.130;5.028;2023-04-24T06:42:37;100322.28;;;17.94;52.78
30302;BME280;17111;52.130;5.028;2023-04-24T06:45:04;100328.66;;;17.93;52.69
30302;BME280;17111;52.130;5.028;2023-04-24T06:47:31;100342.91;;;17.94;52.75
30302;BME280;17111;52.130;5.028;2023-04-24T06:49:58;100336.72;;;17.93;52.59
30302;BME280;17111;52.130;5.028;2023-04-24T06:52:25;100340.38;;;17.92;52.48
30302;BME280;17111;52.130;5.028;2023-04-24T06:54:51;100346.75;;;17.91;52.40
30302;BME280;17111;52.130;5.028;2023-04-24T06:57:18;100357.47;;;17.91;53.06
30302;BME280;17111;52.130;5.028;2023-04-24T06:59:46;100362.84;;;17.91;52.79
30302;BME280;17111;52.130;5.028;2023-04-24T07:02:12;100362.00;;;17.91;52.86
30302;BME280;17111;52.130;5.028;2023-04-24T07:04:39;100365.69;;;17.90;52.88
30302;BME280;17111;52.130;5.028;2023-04-24T07:07:06;100371.06;;;17.90;52.91
30302;BME280;17111;52.130;5.028;2023-04-24T07:09:33;100367.53;;;17.89;52.53
30302;BME280;17111;52.130;5.028;2023-04-24T07:12:01;100380.94;;;17.89;52.98
30302;BME280;17111;52.130;5.028;2023-04-24T07:14:28;100390.81;;;17.89;52.55
30302;BME280;17111;52.130;5.028;2023-04-24T07:16:54;100390.81;;;17.89;52.79
30302;BME280;17111;52.130;5.028;2023-04-24T07:19:21;100396.16;;;17.89;52.75
30302;BME280;17111;52.130;5.028;2023-04-24T07:21:47;100404.22;;;17.89;52.32
30302;BME280;17111;52.130;5.028;2023-04-24T07:24:14;100399.84;;;17.88;52.82
30302;BME280;17111;52.130;5.028;2023-04-24T07:26:41;100407.75;;;17.89;52.77
30302;BME280;17111;52.130;5.028;2023-04-24T07:29:07;100415.09;;;17.87;52.78
30302;BME280;17111;52.130;5.028;2023-04-24T07:31:34;100414.09;;;17.88;52.39
30302;BME280;17111;52.130;5.028;2023-04-24T07:34:01;100415.94;;;17.88;52.52
30302;BME280;17111;52.130;5.028;2023-04-24T07:36:28;100424.81;;;17.88;52.73
30302;BME280;17111;52.130;5.028;2023-04-24T07:38:55;100439.06;;;17.89;52.36
30302;BME280;17111;52.130;5.028;2023-04-24T07:41:22;100441.75;;;17.89;52.32
30302;BME280;17111;52.130;5.028;2023-04-24T07:43:50;100446.28;;;17.88;52.45
30302;BME280;17111;52.130;5.028;2023-04-24T07:46:17;100457.81;;;17.89;52.97
30302;BME280;17111;52.130;5.028;2023-04-24T07:48:44;100465.03;;;17.88;52.70
30302;BME280;17111;52.130;5.028;2023-04-24T07:51:10;100468.56;;;17.89;52.70
30302;BME280;17111;52.130;5.028;2023-04-24T07:53:39;100476.59;;;17.89;52.71
30302;BME280;17111;52.130;5.028;2023-04-24T07:56:06;100474.91;;;17.88;52.15
30302;BME280;17111;52.130;5.028;2023-04-24T07:58:33;100481.13;;;17.88;52.38
30302;BME280;17111;52.130;5.028;2023-04-24T08:01:00;100488.34;;;17.88;52.77
30302;BME280;17111;52.130;5.028;2023-04-24T08:03:27;100497.22;;;17.88;52.44
30302;BME280;17111;52.130;5.028;2023-04-24T08:05:54;100499.06;;;17.88;52.70
30302;BME280;17111;52.130;5.028;2023-04-24T08:08:22;100504.28;;;17.89;52.54
30302;BME280;17111;52.130;5.028;2023-04-24T08:10:49;100504.28;;;17.89;52.60
30302;BME280;17111;52.130;5.028;2023-04-24T08:13:16;100517.50;;;17.91;52.45
30302;BME280;17111;52.130;5.028;2023-04-24T08:15:43;100524.72;;;17.90;52.73
30302;BME280;17111;52.130;5.028;2023-04-24T08:18:09;100533.44;;;17.92;52.63
30302;BME280;17111;52.130;5.028;2023-04-24T08:20:38;100543.16;;;17.93;52.08
30302;BME280;17111;52.130;5.028;2023-04-24T08:23:05;100549.19;;;17.95;52.57
30302;BME280;17111;52.130;5.028;2023-04-24T08:25:32;100549.06;;;17.97;52.44
30302;BME280;17111;52.130;5.028;2023-04-24T08:27:58;100557.94;;;17.97;52.35
30302;BME280;17111;52.130;5.028;2023-04-24T08:30:25;100562.28;;;17.98;52.18
30302;BME280;17111;52.130;5.028;2023-04-24T08:32:51;100567.47;;;18.00;52.10
30302;BME280;17111;52.130;5.028;2023-04-24T08:35:18;100569.19;;;18.01;52.16
30302;BME280;17111;52.130;5.028;2023-04-24T08:37:44;100577.22;;;18.01;52.18
30302;BME280;17111;52.130;5.028;2023-04-24T08:40:15;100575.38;;;18.02;52.54
30302;BME280;17111;52.130;5.028;2023-04-24T08:42:43;100578.91;;;18.02;52.04
30302;BME280;17111;52.130;5.028;2023-04-24T08:45:12;100583.25;;;18.03;51.90
30302;BME280;17111;52.130;5.028;2023-04-24T08:47:40;100588.47;;;18.05;51.88
30302;BME280;17111;52.130;5.028;2023-04-24T08:50:08;100598.34;;;18.04;51.97
30302;BME280;17111;52.130;5.028;2023-04-24T08:52:35;100596.66;;;18.03;52.38
30302;BME280;17111;52.130;5.028;2023-04-24T08:55:02;100601.19;;;18.03;52.26
30302;BME280;17111;52.130;5.028;2023-04-24T08:57:29;100603.03;;;18.02;51.76
30302;BME280;17111;52.130;5.028;2023-04-24T08:59:58;100604.88;;;18.02;52.02
30302;BME280;17111;52.130;5.028;2023-04-24T09:02:25;100608.53;;;18.00;52.05
30302;BME280;17111;52.130;5.028;2023-04-24T09:04:52;100613.59;;;18.04;51.98
30302;BME280;17111;52.130;5.028;2023-04-24T09:07:19;100620.84;;;18.11;51.87
30302;BME280;17111;52.130;5.028;2023-04-24T09:09:50;100623.25;;;18.22;51.93
30302;BME280;17111;52.130;5.028;2023-04-24T09:12:17;100614.09;;;18.33;51.71
30302;BME280;17111;52.130;5.028;2023-04-24T09:14:45;100623.69;;;18.44;51.66
30302;BME280;17111;52.130;5.028;2023-04-24T09:17:12;100634.44;;;18.52;51.82
30302;BME280;17111;52.130;5.028;2023-04-24T09:19:40;100631.78;;;18.60;51.67
30302;BME280;17111;52.130;5.028;2023-04-24T09:22:07;100634.69;;;18.67;51.25
30302;BME280;17111;52.130;5.028;2023-04-24T09:24:34;100638.75;;;18.71;51.19
30302;BME280;17111;52.130;5.028;2023-04-24T09:27:01;100646.47;;;18.74;51.12
30302;BME280;17111;52.130;5.028;2023-04-24T09:29:28;100642.47;;;18.78;50.87
30302;BME280;17111;52.130;5.028;2023-04-24T09:31:55;100636.75;;;18.81;51.03
30302;BME280;17111;52.130;5.028;2023-04-24T09:34:23;100652.41;;;18.86;50.79
30302;BME280;17111;52.130;5.028;2023-04-24T09:36:50;100650.38;;;18.88;51.29
30302;BME280;17111;52.130;5.028;2023-04-24T09:39:18;100651.06;;;18.90;50.98
30302;BME280;17111;52.130;5.028;2023-04-24T09:41:51;100659.78;;;18.92;51.05
30302;BME280;17111;52.130;5.028;2023-04-24T09:44:20;100666.69;;;18.94;50.33
30302;BME280;17111;52.130;5.028;2023-04-24T09:46:59;100672.88;;;18.95;50.65
30302;BME280;17111;52.130;5.028;2023-04-24T09:49:28;100671.88;;;18.96;50.22
30302;BME280;17111;52.130;5.028;2023-04-24T09:52:06;100674.75;;;18.94;50.18
30302;BME280;17111;52.130;5.028;2023-04-24T09:54:33;100677.25;;;18.96;50.33
30302;BME280;17111;52.130;5.028;2023-04-24T09:56:59;100699.75;;;18.95;50.12
30302;BME280;17111;52.130;5.028;2023-04-24T09:59:27;100702.56;;;18.93;50.21
30302;BME280;17111;52.130;5.028;2023-04-24T10:01:54;100705.44;;;18.92;50.12
30302;BME280;17111;52.130;5.028;2023-04-24T10:04:22;100717.19;;;18.91;50.81
30302;BME280;17111;52.130;5.028;2023-04-24T10:06:52;100702.94;;;18.90;50.64
30302;BME280;17111;52.130;5.028;2023-04-24T10:09:21;100710.16;;;18.90;50.34
30302;BME280;17111;52.130;5.028;2023-04-24T10:11:51;100701.06;;;18.91;50.70
30302;BME280;17111;52.130;5.028;2023-04-24T10:14:22;100707.94;;;18.93;50.57
30302;BME280;17111;52.130;5.028;2023-04-24T10:16:50;100713.50;;;18.92;50.12
30302;BME280;17111;52.130;5.028;2023-04-24T10:19:18;100712.47;;;18.93;50.52
30302;BME280;17111;52.130;5.028;2023-04-24T10:21:45;100706.13;;;18.94;50.45
30302;BME280;17111;52.130;5.028;2023-04-24T10:24:16;100708.81;;;18.94;50.34
30302;BME280;17111;52.130;5.028;2023-04-24T10:26:44;100716.88;;;18.94;50.71
30302;BME280;17111;52.130;5.028;2023-04-24T10:29:13;100711.31;;;18.95;50.50
30302;BME280;17111;52.130;5.028;2023-04-24T10:31:41;100715.69;;;18.96;50.28
30302;BME280;17111;52.130;5.028;2023-04-24T10:34:09;100723.75;;;18.96;50.55
30302;BME280;17111;52.130;5.028;2023-04-24T10:36:39;100723.59;;;18.98;50.53
30302;BME280;17111;52.130;5.028;2023-04-24T10:39:10;100720.56;;;19.01;50.77
30302;BME280;17111;52.130;5.028;2023-04-24T10:41:38;100718.25;;;19.06;50.38
30302;BME280;17111;52.130;5.028;2023-04-24T10:44:08;100717.91;;;19.09;50.43
30302;BME280;17111;52.130;5.028;2023-04-24T10:46:35;100720.44;;;19.11;50.54
30302;BME280;17111;52.130;5.028;2023-04-24T10:49:06;100730.19;;;19.12;50.79
30302;BME280;17111;52.130;5.028;2023-04-24T10:51:50;100742.78;;;19.11;50.27
30302;BME280;17111;52.130;5.028;2023-04-24T10:54:51;100755.19;;;19.12;50.06
30302;BME280;17111;52.130;5.028;2023-04-24T10:59:46;100764.09;;;19.13;50.06
30302;BME280;17111;52.130;5.028;2023-04-24T11:02:17;100768.81;;;19.11;49.71
30302;BME280;17111;52.130;5.028;2023-04-24T11:04:44;100766.44;;;19.08;49.50
30302;BME280;17111;52.130;5.028;2023-04-24T11:07:13;100766.22;;;19.01;49.80
30302;BME280;17111;52.130;5.028;2023-04-24T11:09:41;100765.03;;;18.95;49.65
30302;BME280;17111;52.130;5.028;2023-04-24T11:12:11;100775.97;;;18.94;49.89
30302;BME280;17111;52.130;5.028;2023-04-24T11:20:05;100782.13;;;18.86;50.42
30302;BME280;17111;52.130;5.028;2023-04-24T11:22:54;100792.53;;;18.89;50.41
30302;BME280;17111;52.130;5.028;2023-04-24T11:25:21;100791.38;;;18.92;50.82
30302;BME280;17111;52.130;5.028;2023-04-24T11:27:49;100788.38;;;18.95;50.53
30302;BME280;17111;52.130;5.028;2023-04-24T11:30:18;100796.13;;;18.98;50.52
30302;BME280;17111;52.130;5.028;2023-04-24T11:32:50;100791.41;;;19.00;51.28
30302;BME280;17111;52.130;5.028;2023-04-24T11:35:21;100797.13;;;19.05;50.77
30302;BME280;17111;52.130;5.028;2023-04-24T11:37:51;100802.19;;;19.08;50.99
30302;BME280;17111;52.130;5.028;2023-04-24T11:40:38;100795.19;;;19.15;51.17
30302;BME280;17111;52.130;5.028;2023-04-24T11:43:06;100798.53;;;19.17;50.87
30302;BME280;17111;52.130;5.028;2023-04-24T11:45:33;100802.91;;;19.18;50.77
30302;BME280;17111;52.130;5.028;2023-04-24T11:48:02;100805.59;;;19.18;50.92
30302;BME280;17111;52.130;5.028;2023-04-24T11:50:29;100808.28;;;19.18;50.76
30302;BME280;17111;52.130;5.028;2023-04-24T11:52:56;100806.59;;;19.17;50.34
30302;BME280;17111;52.130;5.028;2023-04-24T11:55:27;100816.34;;;19.18;50.44
30302;BME280;17111;52.130;5.028;2023-04-24T11:57:59;100820.72;;;19.19;50.43
30302;BME280;17111;52.130;5.028;2023-04-24T12:00:31;100813.31;;;19.21;50.51
30302;BME280;17111;52.130;5.028;2023-04-24T12:03:11;100824.75;;;19.23;50.69
30302;BME280;17111;52.130;5.028;2023-04-24T12:05:38;100832.66;;;19.25;50.33
30302;BME280;17111;52.130;5.028;2023-04-24T12:08:06;100832.50;;;19.27;50.25
30302;BME280;17111;52.130;5.028;2023-04-24T12:10:33;100825.81;;;19.31;50.14
30302;BME280;17111;52.130;5.028;2023-04-24T12:13:01;100828.19;;;19.34;50.27
30302;BME280;17111;52.130;5.028;2023-04-24T12:15:28;100844.31;;;19.34;50.02
30302;BME280;17111;52.130;5.028;2023-04-24T12:17:55;100838.06;;;19.33;50.59
30302;BME280;17111;52.130;5.028;2023-04-24T12:20:30;100839.25;;;19.31;49.85
30302;BME280;17111;52.130;5.028;2023-04-24T12:22:59;100845.47;;;19.31;49.88
30302;BME280;17111;52.130;5.028;2023-04-24T12:25:31;100849.16;;;19.30;49.77
30302;BME280;17111;52.130;5.028;2023-04-24T12:30:31;100866.75;;;19.24;49.49
30302;BME280;17111;52.130;5.028;2023-04-24T12:32:59;100869.75;;;19.21;49.70
30302;BME280;17111;52.130;5.028;2023-04-24T12:35:28;100883.66;;;19.17;49.64
30302;BME280;17111;52.130;5.028;2023-04-24T12:37:55;100883.31;;;19.12;49.75
30302;BME280;17111;52.130;5.028;2023-04-24T12:40:25;100899.75;;;19.09;49.67
30302;BME280;17111;52.130;5.028;2023-04-24T12:42:51;100885.66;;;19.07;50.24
30302;BME280;17111;52.130;5.028;2023-04-24T12:45:19;100895.03;;;19.03;50.07
30302;BME280;17111;52.130;5.028;2023-04-24T12:47:46;100897.19;;;18.99;50.01
30302;BME280;17111;52.130;5.028;2023-04-24T12:50:14;100895.81;;;18.95;50.10
30302;BME280;17111;52.130;5.028;2023-04-24T12:52:41;100904.19;;;18.92;50.52
30302;BME280;17111;52.130;5.028;2023-04-24T12:55:08;100896.28;;;18.90;50.81
30302;BME280;17111;52.130;5.028;2023-04-24T12:57:37;100898.28;;;18.88;50.38
30302;BME280;17111;52.130;5.028;2023-04-24T13:00:06;100899.97;;;18.89;50.90
30302;BME280;17111;52.130;5.028;2023-04-24T13:02:33;100891.09;;;18.97;50.66
30302;BME280;17111;52.130;5.028;2023-04-24T13:05:01;100898.72;;;19.02;50.42